sensor_id;sensor_type;location;lat;lon;timestamp;pressure;altitude;pressure_sealevel;temperature;humidity
39141;BME280;24875;48.436;10.298;2023-11-19T00:00:25;96295.84;;;8.40;100.00
39141;BME280;24875;48.436;10.298;2023-11-19T00:02:51;96296.19;;;8.52;100.00
39141;BME280;24875;48.436;10.298;2023-11-19T00:05:19;96293.09;;;8.57;100.00
39141;BME280;24875;48.436;10.298;2023-11-19T00:07:46;96294.06;;;8.48;100.00
39141;BME280;24875;48.436;10.298;2023-11-19T00:10:14;96288.81;;;8.40;100.00
39141;BME280;24875;48.436;10.298;2023-11-19T00:12:45;96289.78;;;8.39;100.00
39141;BME280;24875;48.436;10.298;2023-11-19T00:15:12;96285.84;;;8.35;100.00
39141;BME280;24875;48.436;10.298;2023-11-19T00:17:38;96293.22;;;8.40;100.00
39141;BME280;24875;48.436;10.298;2023-11-19T00:20:10;96278.47;;;8.47;100.00
39141;BME280;24875;48.436;10.298;2023-11-19T00:22:38;96263.06;;;8.59;100.00
39141;BME280;24875;48.436;10.298;2023-11-19T00:25:05;96258.28;;;8.47;100.00
39141;BME280;24875;48.436;10.298;2023-11-19T00:27:32;96258.94;;;8.49;100.00
39141;BME280;24875;48.436;10.298;2023-11-19T00:29:59;96249.59;;;8.54;100.00
39141;BME280;24875;48.436;10.298;2023-11-19T00:32:25;96233.34;;;8.51;100.00
39141;BME280;24875;48.436;10.298;2023-11-19T00:34:52;96224.97;;;8.40;100.00
39141;BME280;24875;48.436;10.298;2023-11-19T00:37:18;96227.09;;;8.60;100.00
39141;BME280;24875;48.436;10.298;2023-11-19T00:39:46;96228.56;;;8.54;100.00
39141;BME280;24875;48.436;10.298;2023-11-19T00:42:13;96224.31;;;8.46;100.00
39141;BME280;24875;48.436;10.298;2023-11-19T00:44:39;96221.69;;;8.46;100.00
39141;BME280;24875;48.436;10.298;2023-11-19T00:47:06;96233.81;;;8.62;100.00
39141;BME280;24875;48.436;10.298;2023-11-19T00:49:32;96226.94;;;8.46;100.00
39141;BME280;24875;48.436;10.298;2023-11-19T00:51:59;96238.59;;;8.43;100.00
39141;BME280;24875;48.436;10.298;2023-11-19T00:54:25;96241.53;;;8.56;100.00
39141;BME280;24875;48.436;10.298;2023-11-19T00:56:53;96234.13;;;8.75;100.00
39141;BME280;24875;48.436;10.298;2023-11-19T00:59:20;96239.75;;;8.64;100.00
39141;BME280;24875;48.436;10.298;2023-11-19T01:01:47;96238.09;;;8.63;100.00
39141;BME280;24875;48.436;10.298;2023-11-19T01:04:14;96225.63;;;8.42;100.00
39141;BME280;24875;48.436;10.298;2023-11-19T01:06:40;96225.13;;;8.62;100.00
39141;BME280;24875;48.436;10.298;2023-11-19T01:09:08;96223.78;;;8.74;100.00
39141;BME280;24875;48.436;10.298;2023-11-19T01:11:35;96225.94;;;8.62;100.00
39141;BME280;24875;48.436;10.298;2023-11-19T01:14:03;96231.84;;;8.72;100.00
39141;BME280;24875;48.436;10.298;2023-11-19T01:16:30;96224.28;;;8.77;100.00
39141;BME280;24875;48.436;10.298;2023-11-19T01:18:56;96222.31;;;8.79;100.00
39141;BME280;24875;48.436;10.298;2023-11-19T01:21:23;96215.59;;;8.69;100.00
39141;BME280;24875;48.436;10.298;2023-11-19T01:23:49;96215.09;;;8.81;100.00
39141;BME280;24875;48.436;10.298;2023-11-19T01:26:16;96202.59;;;8.83;100.00
39141;BME280;24875;48.436;10.298;2023-11-19T01:28:42;96210.31;;;8.85;100.00
39141;BME280;24875;48.436;10.298;2023-11-19T01:31:11;96204.53;;;8.97;100.00
39141;BME280;24875;48.436;10.298;2023-11-19T01:33:38;96200.28;;;8.96;100.00
39141;BME280;24875;48.436;10.298;2023-11-19T01:36:05;96187.16;;;8.96;100.00
39141;BME280;24875;48.436;10.298;2023-11-19T01:38:33;96195.63;;;9.06;100.00
39141;BME280;24875;48.436;10.298;2023-11-19T01:40:59;96185.34;;;8.89;100.00
39141;BME280;24875;48.436;10.298;2023-11-19T01:43:33;96173.31;;;9.10;100.00
39141;BME280;24875;48.436;10.298;2023-11-19T01:46:00;96175.75;;;9.04;100.00
39141;BME280;24875;48.436;10.298;2023-11-19T01:48:29;96167.88;;;9.11;100.00
39141;BME280;24875;48.436;10.298;2023-11-19T01:50:58;96170.38;;;8.97;100.00
39141;BME280;24875;48.436;10.298;2023-11-19T01:53:25;96163.75;;;9.17;100.00
39141;BME280;24875;48.436;10.298;2023-11-19T01:55:51;96160.78;;;9.12;100.00
39141;BME280;24875;48.436;10.298;2023-11-19T01:58:18;96164.53;;;9.17;100.00
39141;BME280;24875;48.436;10.298;2023-11-19T02:00:45;96169.66;;;9.11;100.00
39141;BME280;24875;48.436;10.298;2023-11-19T02:03:11;96163.78;;;9.09;100.00
39141;BME280;24875;48.436;10.298;2023-11-19T02:05:40;96152.38;;;9.24;100.00
39141;BME280;24875;48.436;10.298;2023-11-19T02:08:07;96150.06;;;9.21;100.00
39141;BME280;24875;48.436;10.298;2023-11-19T02:10:34;96144.34;;;9.18;100.00
39141;BME280;24875;48.436;10.298;2023-11-19T02:13:01;96133.50;;;9.21;100.00
39141;BME280;24875;48.436;10.298;2023-11-19T02:15:30;96132.47;;;9.30;100.00
39141;BME280;24875;48.436;10.298;2023-11-19T02:17:57;96130.84;;;9.21;100.00
39141;BME280;24875;48.436;10.298;2023-11-19T02:20:23;96120.22;;;9.45;100.00
39141;BME280;24875;48.436;10.298;2023-11-19T02:22:52;96112.38;;;9.37;100.00
39141;BME280;24875;48.436;10.298;2023-11-19T02:25:23;96109.03;;;9.43;100.00
39141;BME280;24875;48.436;10.298;2023-11-19T02:27:56;96099.44;;;9.58;100.00
39141;BME280;24875;48.436;10.298;2023-11-19T02:30:24;96103.16;;;9.41;100.00
39141;BME280;24875;48.436;10.298;2023-11-19T02:32:52;96106.53;;;9.57;100.00
39141;BME280;24875;48.436;10.298;2023-11-19T02:35:18;96113.69;;;9.33;100.00
39141;BME280;24875;48.436;10.298;2023-11-19T02:37:47;96108.41;;;9.41;100.00
39141;BME280;24875;48.436;10.298;2023-11-19T02:40:13;96109.22;;;9.41;100.00
39141;BME280;24875;48.436;10.298;2023-11-19T02:42:40;96118.94;;;9.41;100.00
39141;BME280;24875;48.436;10.298;2023-11-19T02:45:09;96116.50;;;9.62;100.00
39141;BME280;24875;48.436;10.298;2023-11-19T02:47:39;96121.66;;;9.55;100.00
39141;BME280;24875;48.436;10.298;2023-11-19T02:50:06;96114.75;;;9.54;100.00
39141;BME280;24875;48.436;10.298;2023-11-19T02:52:39;96109.91;;;9.35;100.00
39141;BME280;24875;48.436;10.298;2023-11-19T02:55:06;96110.38;;;9.39;100.00
39141;BME280;24875;48.436;10.298;2023-11-19T02:57:35;96100.56;;;9.33;100.00
39141;BME280;24875;48.436;10.298;2023-11-19T03:00:01;96096.69;;;9.51;100.00
39141;BME280;24875;48.436;10.298;2023-11-19T03:02:39;96102.66;;;9.68;100.00
39141;BME280;24875;48.436;10.298;2023-11-19T03:05:10;96106.91;;;9.68;100.00
39141;BME280;24875;48.436;10.298;2023-11-19T03:07:37;96102.66;;;9.68;100.00
39141;BME280;24875;48.436;10.298;2023-11-19T03:10:03;96089.00;;;9.42;100.00
39141;BME280;24875;48.436;10.298;2023-11-19T03:12:31;96096.00;;;9.57;100.00
39141;BME280;24875;48.436;10.298;2023-11-19T03:14:57;96095.75;;;9.67;100.00
39141;BME280;24875;48.436;10.298;2023-11-19T03:17:24;96098.03;;;9.69;100.00
39141;BME280;24875;48.436;10.298;2023-11-19T03:19:51;96095.31;;;9.85;100.00
39141;BME280;24875;48.436;10.298;2023-11-19T03:22:18;96094.84;;;9.52;100.00
39141;BME280;24875;48.436;10.298;2023-11-19T03:24:46;96093.00;;;9.60;100.00
39141;BME280;24875;48.436;10.298;2023-11-19T03:27:12;96104.00;;;9.64;100.00
39141;BME280;24875;48.436;10.298;2023-11-19T03:29:39;96107.06;;;9.75;100.00
39141;BME280;24875;48.436;10.298;2023-11-19T03:32:05;96113.41;;;9.58;100.00
39141;BME280;24875;48.436;10.298;2023-11-19T03:34:32;96114.78;;;9.76;100.00
39141;BME280;24875;48.436;10.298;2023-11-19T03:36:59;96120.06;;;9.68;100.00
39141;BME280;24875;48.436;10.298;2023-11-19T03:39:26;96114.78;;;9.76;100.00
39141;BME280;24875;48.436;10.298;2023-11-19T03:41:53;96113.13;;;9.75;100.00
39141;BME280;24875;48.436;10.298;2023-11-19T03:44:19;96113.50;;;9.72;100.00
39141;BME280;24875;48.436;10.298;2023-11-19T03:46:47;96104.88;;;9.78;100.00
39141;BME280;24875;48.436;10.298;2023-11-19T03:49:13;96107.47;;;9.86;100.00
39141;BME280;24875;48.436;10.298;2023-11-19T03:51:39;96116.16;;;9.87;100.00
39141;BME280;24875;48.436;10.298;2023-11-19T03:54:07;96122.16;;;10.03;100.00
39141;BME280;24875;48.436;10.298;2023-11-19T03:56:34;96125.69;;;9.96;100.00
39141;BME280;24875;48.436;10.298;2023-11-19T03:59:00;96124.88;;;9.87;100.00
39141;BME280;24875;48.436;10.298;2023-11-19T04:01:27;96118.25;;;9.99;100.00
39141;BME280;24875;48.436;10.298;2023-11-19T04:03:54;96124.25;;;9.85;100.00
39141;BME280;24875;48.436;10.298;2023-11-19T04:06:21;96133.91;;;9.93;100.00
39141;BME280;24875;48.436;10.298;2023-11-19T04:08:47;96131.16;;;9.86;100.00
39141;BME280;24875;48.436;10.298;2023-11-19T04:11:16;96135.16;;;10.05;100.00
39141;BME280;24875;48.436;10.298;2023-11-19T04:13:42;96124.50;;;9.98;100.00
39141;BME280;24875;48.436;10.298;2023-11-19T04:16:09;96110.72;;;9.88;100.00
39141;BME280;24875;48.436;10.298;2023-11-19T04:18:35;96119.19;;;10.06;100.00
39141;BME280;24875;48.436;10.298;2023-11-19T04:21:05;96116.06;;;10.25;100.00
39141;BME280;24875;48.436;10.298;2023-11-19T04:23:33;96118.66;;;10.11;100.00
39141;BME280;24875;48.436;10.298;2023-11-19T04:26:01;96112.72;;;10.31;100.00
39141;BME280;24875;48.436;10.298;2023-11-19T04:28:30;96112.09;;;10.07;100.00
39141;BME280;24875;48.436;10.298;2023-11-19T04:30:57;96119.34;;;10.05;100.00
39141;BME280;24875;48.436;10.298;2023-11-19T04:33:23;96122.00;;;10.05;100.00
39141;BME280;24875;48.436;10.298;2023-11-19T04:35:50;96111.47;;;10.05;100.00
39141;BME280;24875;48.436;10.298;2023-11-19T04:38:16;96108.03;;;10.04;100.00
39141;BME280;24875;48.436;10.298;2023-11-19T04:40:43;96106.38;;;10.03;100.00
39141;BME280;24875;48.436;10.298;2023-11-19T04:43:09;96107.28;;;10.10;100.00
39141;BME280;24875;48.436;10.298;2023-11-19T04:45:37;96099.59;;;10.23;100.00
39141;BME280;24875;48.436;10.298;2023-11-19T04:48:04;96101.72;;;10.05;100.00
39141;BME280;24875;48.436;10.298;2023-11-19T04:50:31;96104.59;;;10.18;100.00
39141;BME280;24875;48.436;10.298;2023-11-19T04:52:57;96107.78;;;10.28;100.00
39141;BME280;24875;48.436;10.298;2023-11-19T04:55:24;96101.94;;;10.18;100.00
39141;BME280;24875;48.436;10.298;2023-11-19T04:57:54;96098.19;;;10.35;100.00
39141;BME280;24875;48.436;10.298;2023-11-19T05:00:20;96104.59;;;10.18;100.00
39141;BME280;24875;48.436;10.298;2023-11-19T05:02:49;96111.66;;;10.40;100.00
39141;BME280;24875;48.436;10.298;2023-11-19T05:05:15;96105.41;;;10.19;100.00
39141;BME280;24875;48.436;10.298;2023-11-19T05:07:42;96108.16;;;10.25;100.00
39141;BME280;24875;48.436;10.298;2023-11-19T05:10:09;96099.06;;;10.13;100.00
39141;BME280;24875;48.436;10.298;2023-11-19T05:12:35;96111.09;;;10.30;100.00
39141;BME280;24875;48.436;10.298;2023-11-19T05:15:02;96107.00;;;10.28;100.00
39141;BME280;24875;48.436;10.298;2023-11-19T05:17:29;96123.66;;;10.20;100.00
39141;BME280;24875;48.436;10.298;2023-11-19T05:19:57;96100.53;;;10.30;100.00
39141;BME280;24875;48.436;10.298;2023-11-19T05:22:23;96113.59;;;10.24;100.00
39141;BME280;24875;48.436;10.298;2023-11-19T05:24:51;96102.91;;;10.39;100.00
39141;BME280;24875;48.436;10.298;2023-11-19T05:27:18;96102.50;;;10.50;100.00
39141;BME280;24875;48.436;10.298;2023-11-19T05:29:44;96113.13;;;10.42;100.00
39141;BME280;24875;48.436;10.298;2023-11-19T05:32:10;96105.59;;;10.54;100.00
39141;BME280;24875;48.436;10.298;2023-11-19T05:34:37;96103.66;;;10.48;100.00
39141;BME280;24875;48.436;10.298;2023-11-19T05:37:05;96106.78;;;10.66;100.00
39141;BME280;24875;48.436;10.298;2023-11-19T05:39:32;96096.47;;;10.42;100.00
39141;BME280;24875;48.436;10.298;2023-11-19T05:41:58;96092.84;;;10.43;100.00
39141;BME280;24875;48.436;10.298;2023-11-19T05:44:24;96090.31;;;10.49;100.00
39141;BME280;24875;48.436;10.298;2023-11-19T05:46:51;96100.84;;;10.35;100.00
39141;BME280;24875;48.436;10.298;2023-11-19T05:49:18;96104.75;;;10.39;100.00
39141;BME280;24875;48.436;10.298;2023-11-19T05:51:44;96098.13;;;10.43;100.00
39141;BME280;24875;48.436;10.298;2023-11-19T05:54:12;96098.22;;;10.49;100.00
39141;BME280;24875;48.436;10.298;2023-11-19T05:56:39;96115.00;;;10.34;100.00
39141;BME280;24875;48.436;10.298;2023-11-19T05:59:06;96110.28;;;10.44;100.00
39141;BME280;24875;48.436;10.298;2023-11-19T06:01:43;96105.03;;;10.44;100.00
39141;BME280;24875;48.436;10.298;2023-11-19T06:04:09;96119.19;;;10.43;100.00
39141;BME280;24875;48.436;10.298;2023-11-19T06:06:36;96109.03;;;10.40;100.00
39141;BME280;24875;48.436;10.298;2023-11-19T06:09:03;96106.22;;;10.56;100.00
39141;BME280;24875;48.436;10.298;2023-11-19T06:11:33;96116.66;;;10.64;100.00
39141;BME280;24875;48.436;10.298;2023-11-19T06:14:01;96117.03;;;10.61;100.00
39141;BME280;24875;48.436;10.298;2023-11-19T06:16:27;96121.03;;;10.57;100.00
39141;BME280;24875;48.436;10.298;2023-11-19T06:18:54;96114.72;;;10.43;100.00
39141;BME280;24875;48.436;10.298;2023-11-19T06:21:20;96121.75;;;10.51;100.00
39141;BME280;24875;48.436;10.298;2023-11-19T06:23:47;96129.13;;;10.55;100.00
39141;BME280;24875;48.436;10.298;2023-11-19T06:26:14;96128.38;;;10.61;100.00
39141;BME280;24875;48.436;10.298;2023-11-19T06:28:42;96130.31;;;10.82;100.00
39141;BME280;24875;48.436;10.298;2023-11-19T06:31:08;96127.22;;;10.64;100.00
39141;BME280;24875;48.436;10.298;2023-11-19T06:33:35;96133.84;;;10.74;100.00
39141;BME280;24875;48.436;10.298;2023-11-19T06:36:01;96134.78;;;10.81;100.00
39141;BME280;24875;48.436;10.298;2023-11-19T06:38:28;96134.22;;;10.71;100.00
39141;BME280;24875;48.436;10.298;2023-11-19T06:40:54;96136.22;;;10.69;100.00
39141;BME280;24875;48.436;10.298;2023-11-19T06:43:21;96133.97;;;10.81;100.00
39141;BME280;24875;48.436;10.298;2023-11-19T06:45:49;96141.88;;;10.81;100.00
39141;BME280;24875;48.436;10.298;2023-11-19T06:48:15;96146.97;;;10.82;100.00
39141;BME280;24875;48.436;10.298;2023-11-19T06:50:42;96147.97;;;10.81;100.00
39141;BME280;24875;48.436;10.298;2023-11-19T06:53:09;96146.50;;;10.79;100.00
39141;BME280;24875;48.436;10.298;2023-11-19T06:55:35;96154.50;;;10.71;100.00
39141;BME280;24875;48.436;10.298;2023-11-19T06:58:02;96151.13;;;10.77;100.00
39141;BME280;24875;48.436;10.298;2023-11-19T07:00:28;96159.13;;;10.83;100.00
39141;BME280;24875;48.436;10.298;2023-11-19T07:02:58;96159.78;;;10.99;100.00
39141;BME280;24875;48.436;10.298;2023-11-19T07:05:24;96154.94;;;10.74;100.00
39141;BME280;24875;48.436;10.298;2023-11-19T07:07:51;96164.16;;;10.93;100.00
39141;BME280;24875;48.436;10.298;2023-11-19T07:10:19;96167.03;;;10.83;100.00
39141;BME280;24875;48.436;10.298;2023-11-19T07:12:45;96170.22;;;10.93;100.00
39141;BME280;24875;48.436;10.298;2023-11-19T07:15:12;96165.88;;;11.14;100.00
39141;BME280;24875;48.436;10.298;2023-11-19T07:17:39;96162.34;;;11.07;100.00
39141;BME280;24875;48.436;10.298;2023-11-19T07:20:09;96168.97;;;11.18;100.00
39141;BME280;24875;48.436;10.298;2023-11-19T07:22:38;96164.78;;;11.23;100.00
39141;BME280;24875;48.436;10.298;2023-11-19T07:25:05;96175.97;;;11.11;100.00
39141;BME280;24875;48.436;10.298;2023-11-19T07:27:31;96171.97;;;11.15;100.00
39141;BME280;24875;48.436;10.298;2023-11-19T07:29:58;96164.41;;;11.12;100.00
39141;BME280;24875;48.436;10.298;2023-11-19T07:32:24;96160.59;;;11.29;100.00
39141;BME280;24875;48.436;10.298;2023-11-19T07:34:51;96162.53;;;11.20;100.00
39141;BME280;24875;48.436;10.298;2023-11-19T07:37:19;96166.16;;;11.48;100.00
39141;BME280;24875;48.436;10.298;2023-11-19T07:39:45;96162.78;;;11.40;100.00
39141;BME280;24875;48.436;10.298;2023-11-19T07:42:12;96163.50;;;11.34;100.00
39141;BME280;24875;48.436;10.298;2023-11-19T07:44:38;96164.69;;;11.31;100.00
39141;BME280;24875;48.436;10.298;2023-11-19T07:47:05;96168.50;;;11.43;100.00
39141;BME280;24875;48.436;10.298;2023-11-19T07:49:31;96171.34;;;11.56;100.00
39141;BME280;24875;48.436;10.298;2023-11-19T07:51:58;96174.25;;;11.61;100.00
39141;BME280;24875;48.436;10.298;2023-11-19T07:54:26;96169.25;;;11.66;100.00
39141;BME280;24875;48.436;10.298;2023-11-19T07:56:52;96175.06;;;11.47;100.00
39141;BME280;24875;48.436;10.298;2023-11-19T07:59:19;96186.88;;;11.65;100.00
39141;BME280;24875;48.436;10.298;2023-11-19T08:01:45;96190.63;;;11.42;100.00
39141;BME280;24875;48.436;10.298;2023-11-19T08:04:12;96190.69;;;11.63;100.00
39141;BME280;24875;48.436;10.298;2023-11-19T08:06:39;96187.16;;;11.70;100.00
39141;BME280;24875;48.436;10.298;2023-11-19T08:09:06;96182.50;;;11.58;100.00
39141;BME280;24875;48.436;10.298;2023-11-19T08:11:40;96200.16;;;11.86;100.00
39141;BME280;24875;48.436;10.298;2023-11-19T08:14:06;96191.63;;;11.70;100.00
39141;BME280;24875;48.436;10.298;2023-11-19T08:16:33;96194.44;;;11.68;100.00
39141;BME280;24875;48.436;10.298;2023-11-19T08:19:00;96200.53;;;11.69;100.00
39141;BME280;24875;48.436;10.298;2023-11-19T08:21:26;96196.41;;;11.81;100.00
39141;BME280;24875;48.436;10.298;2023-11-19T08:23:53;96196.97;;;11.76;100.00
39141;BME280;24875;48.436;10.298;2023-11-19T08:26:19;96199.75;;;11.89;100.00
39141;BME280;24875;48.436;10.298;2023-11-19T08:28:47;96198.75;;;11.90;100.00
39141;BME280;24875;48.436;10.298;2023-11-19T08:31:14;96190.69;;;11.77;100.00
39141;BME280;24875;48.436;10.298;2023-11-19T08:33:40;96195.47;;;11.88;100.00
39141;BME280;24875;48.436;10.298;2023-11-19T08:36:08;96197.31;;;11.73;100.00
39141;BME280;24875;48.436;10.298;2023-11-19T08:38:34;96194.19;;;11.63;100.00
39141;BME280;24875;48.436;10.298;2023-11-19T08:41:01;96188.63;;;11.58;100.00
39141;BME280;24875;48.436;10.298;2023-11-19T08:43:27;96189.28;;;11.96;100.00
39141;BME280;24875;48.436;10.298;2023-11-19T08:45:56;96183.72;;;11.91;100.00
39141;BME280;24875;48.436;10.298;2023-11-19T08:48:22;96188.22;;;11.76;100.00
39141;BME280;24875;48.436;10.298;2023-11-19T08:50:49;96179.44;;;11.90;100.00
39141;BME280;24875;48.436;10.298;2023-11-19T08:53:15;96180.44;;;11.89;100.00
39141;BME280;24875;48.436;10.298;2023-11-19T08:55:42;96187.28;;;11.98;100.00
39141;BME280;24875;48.436;10.298;2023-11-19T08:58:08;96196.63;;;12.00;100.00
39141;BME280;24875;48.436;10.298;2023-11-19T09:00:35;96187.38;;;11.90;100.00
39141;BME280;24875;48.436;10.298;2023-11-19T09:03:03;96186.16;;;12.27;100.00
39141;BME280;24875;48.436;10.298;2023-11-19T09:05:29;96176.22;;;12.09;100.00
39141;BME280;24875;48.436;10.298;2023-11-19T09:07:56;96182.81;;;12.19;100.00
39141;BME280;24875;48.436;10.298;2023-11-19T09:10:22;96181.88;;;12.26;100.00
39141;BME280;24875;48.436;10.298;2023-11-19T09:12:48;96178.03;;;12.29;100.00
39141;BME280;24875;48.436;10.298;2023-11-19T09:15:15;96173.44;;;12.16;100.00
39141;BME280;24875;48.436;10.298;2023-11-19T09:17:41;96171.19;;;12.34;100.00
39141;BME280;24875;48.436;10.298;2023-11-19T09:20:10;96177.28;;;12.56;100.00
39141;BME280;24875;48.436;10.298;2023-11-19T09:22:40;96174.25;;;12.59;100.00
39141;BME280;24875;48.436;10.298;2023-11-19T09:25:07;96183.88;;;12.66;100.00
39141;BME280;24875;48.436;10.298;2023-11-19T09:27:34;96180.88;;;12.69;100.00
39141;BME280;24875;48.436;10.298;2023-11-19T09:30:00;96167.50;;;12.77;100.00
39141;BME280;24875;48.436;10.298;2023-11-19T09:32:29;96187.91;;;12.83;100.00
39141;BME280;24875;48.436;10.298;2023-11-19T09:34:55;96185.91;;;13.12;100.00
39141;BME280;24875;48.436;10.298;2023-11-19T09:37:23;96183.75;;;13.29;100.00
39141;BME280;24875;48.436;10.298;2023-11-19T09:39:50;96201.50;;;13.01;100.00
39141;BME280;24875;48.436;10.298;2023-11-19T09:42:16;96195.41;;;13.07;100.00
39141;BME280;24875;48.436;10.298;2023-11-19T09:44:43;96189.44;;;13.26;100.00
39141;BME280;24875;48.436;10.298;2023-11-19T09:47:11;96186.41;;;13.35;100.00
39141;BME280;24875;48.436;10.298;2023-11-19T09:49:38;96190.25;;;13.26;100.00
39141;BME280;24875;48.436;10.298;2023-11-19T09:52:05;96191.03;;;13.20;100.00
39141;BME280;24875;48.436;10.298;2023-11-19T09:54:33;96178.06;;;13.32;100.00
39141;BME280;24875;48.436;10.298;2023-11-19T09:57:01;96190.34;;;13.39;100.00
39141;BME280;24875;48.436;10.298;2023-11-19T09:59:29;96202.59;;;13.13;100.00
39141;BME280;24875;48.436;10.298;2023-11-19T10:01:56;96194.72;;;13.26;100.00
39141;BME280;24875;48.436;10.298;2023-11-19T10:04:23;96191.16;;;13.39;100.00
39141;BME280;24875;48.436;10.298;2023-11-19T10:06:51;96186.25;;;13.09;100.00
39141;BME280;24875;48.436;10.298;2023-11-19T10:09:18;96170.13;;;13.32;100.00
39141;BME280;24875;48.436;10.298;2023-11-19T10:11:46;96184.66;;;13.42;100.00
39141;BME280;24875;48.436;10.298;2023-11-19T10:14:14;96193.91;;;12.98;100.00
39141;BME280;24875;48.436;10.298;2023-11-19T10:16:41;96190.06;;;13.00;100.00
39141;BME280;24875;48.436;10.298;2023-11-19T10:19:12;96186.78;;;13.26;100.00
39141;BME280;24875;48.436;10.298;2023-11-19T10:21:45;96176.75;;;13.48;100.00
39141;BME280;24875;48.436;10.298;2023-11-19T10:24:12;96182.78;;;13.36;100.00
39141;BME280;24875;48.436;10.298;2023-11-19T10:26:38;96177.28;;;13.38;100.00
39141;BME280;24875;48.436;10.298;2023-11-19T10:29:08;96172.91;;;13.57;100.00
39141;BME280;24875;48.436;10.298;2023-11-19T10:31:34;96181.56;;;13.38;100.00
39141;BME280;24875;48.436;10.298;2023-11-19T10:34:00;96170.00;;;13.46;100.00
39141;BME280;24875;48.436;10.298;2023-11-19T10:36:37;96161.84;;;13.88;100.00
39141;BME280;24875;48.436;10.298;2023-11-19T10:39:04;96167.25;;;13.67;100.00
39141;BME280;24875;48.436;10.298;2023-11-19T10:41:31;96155.63;;;13.61;100.00
39141;BME280;24875;48.436;10.298;2023-11-19T10:43:58;96148.94;;;13.78;100.00
39141;BME280;24875;48.436;10.298;2023-11-19T10:46:37;96146.56;;;14.02;100.00
39141;BME280;24875;48.436;10.298;2023-11-19T10:49:04;96146.44;;;14.10;100.00
39141;BME280;24875;48.436;10.298;2023-11-19T10:51:32;96148.22;;;14.03;100.00
39141;BME280;24875;48.436;10.298;2023-11-19T10:54:02;96148.09;;;14.18;100.00
39141;BME280;24875;48.436;10.298;2023-11-19T10:56:31;96135.84;;;14.10;100.00
39141;BME280;24875;48.436;10.298;2023-11-19T10:58:59;96119.13;;;14.10;100.00
39141;BME280;24875;48.436;10.298;2023-11-19T11:01:27;96116.69;;;14.34;100.00
39141;BME280;24875;48.436;10.298;2023-11-19T11:04:00;96124.28;;;14.37;100.00
39141;BME280;24875;48.436;10.298;2023-11-19T11:06:28;96120.38;;;14.27;100.00
39141;BME280;24875;48.436;10.298;2023-11-19T11:08:55;96114.88;;;14.54;100.00
39141;BME280;24875;48.436;10.298;2023-11-19T11:11:22;96120.59;;;14.70;100.00
39141;BME280;24875;48.436;10.298;2023-11-19T11:13:50;96121.84;;;14.49;100.00
39141;BME280;24875;48.436;10.298;2023-11-19T11:16:18;96117.34;;;14.43;100.00
39141;BME280;24875;48.436;10.298;2023-11-19T11:18:45;96104.69;;;14.58;100.00
39141;BME280;24875;48.436;10.298;2023-11-19T11:21:19;96099.56;;;14.82;100.00
39141;BME280;24875;48.436;10.298;2023-11-19T11:24:01;96104.41;;;15.11;100.00
39141;BME280;24875;48.436;10.298;2023-11-19T11:29:41;96099.31;;;15.09;100.00
39141;BME280;24875;48.436;10.298;2023-11-19T11:32:16;96104.63;;;15.09;100.00
39141;BME280;24875;48.436;10.298;2023-11-19T11:34:55;96093.97;;;15.16;100.00
39141;BME280;24875;48.436;10.298;2023-11-19T11:37:31;96099.50;;;15.27;100.00
39141;BME280;24875;48.436;10.298;2023-11-19T11:39:58;96098.97;;;14.73;100.00
39141;BME280;24875;48.436;10.298;2023-11-19T11:42:34;96092.41;;;14.82;100.00
39141;BME280;24875;48.436;10.298;2023-11-19T11:45:03;96077.31;;;14.89;100.00
39141;BME280;24875;48.436;10.298;2023-11-19T11:50:30;96082.00;;;14.87;100.00
39141;BME280;24875;48.436;10.298;2023-11-19T11:53:16;96073.38;;;15.24;100.00
39141;BME280;24875;48.436;10.298;2023-11-19T11:55:57;96074.28;;;15.49;100.00
39141;BME280;24875;48.436;10.298;2023-11-19T11:58:27;96073.97;;;15.13;100.00
39141;BME280;24875;48.436;10.298;2023-11-19T12:00:57;96078.91;;;14.97;100.00
39141;BME280;24875;48.436;10.298;2023-11-19T12:03:27;96077.25;;;15.22;100.00
39141;BME280;24875;48.436;10.298;2023-11-19T12:05:53;96077.06;;;15.23;100.00
39141;BME280;24875;48.436;10.298;2023-11-19T12:08:25;96092.09;;;15.42;100.00
39141;BME280;24875;48.436;10.298;2023-11-19T12:10:54;96096.75;;;15.53;100.00
39141;BME280;24875;48.436;10.298;2023-11-19T12:13:23;96087.66;;;15.23;100.00
39141;BME280;24875;48.436;10.298;2023-11-19T12:16:08;96103.13;;;15.89;100.00
39141;BME280;24875;48.436;10.298;2023-11-19T12:18:38;96097.34;;;15.55;100.00
39141;BME280;24875;48.436;10.298;2023-11-19T12:21:05;96092.09;;;15.42;100.00
39141;BME280;24875;48.436;10.298;2023-11-19T12:23:44;96094.69;;;15.55;100.00
39141;BME280;24875;48.436;10.298;2023-11-19T12:26:21;96087.97;;;15.52;100.00
39141;BME280;24875;48.436;10.298;2023-11-19T12:29:00;96077.78;;;15.49;100.00
39141;BME280;24875;48.436;10.298;2023-11-19T12:31:29;96076.78;;;15.37;100.00
39141;BME280;24875;48.436;10.298;2023-11-19T12:33:55;96081.31;;;15.30;100.00
39141;BME280;24875;48.436;10.298;2023-11-19T12:36:22;96071.09;;;15.15;100.00
39141;BME280;24875;48.436;10.298;2023-11-19T12:38:50;96078.97;;;15.53;100.00
39141;BME280;24875;48.436;10.298;2023-11-19T12:41:16;96066.09;;;15.57;100.00
39141;BME280;24875;48.436;10.298;2023-11-19T12:43:45;96070.06;;;15.79;100.00
39141;BME280;24875;48.436;10.298;2023-11-19T12:46:19;96056.69;;;16.22;100.00
39141;BME280;24875;48.436;10.298;2023-11-19T12:48:46;96060.75;;;16.00;100.00
39141;BME280;24875;48.436;10.298;2023-11-19T12:51:12;96064.69;;;15.91;100.00